Time;durP1;ratioP1;P1;durP2;ratioP2;P2;SDS_P1;SDS_P2;PMS_P1;PMS_P2;Temp;Humidity;BMP_temperature;BMP_pressure;BME280_temperature;BME280_humidity;BME280_pressure;Samples;Min_cycle;Max_cycle;Signal;HPM_P1;HPM_P2
2022/04/30 00:02:15;;;;;;;3.00;2.67;;;8.10;98.00;;;;;;5097938;28;20023;-40
2022/04/30 00:04:45;;;;;;;3.60;2.40;;;8.00;98.00;;;;;;5087150;28;20467;-43
2022/04/30 00:07:29;;;;;;;5.47;2.40;;;8.00;98.20;;;;;;5096431;28;20471;-41
2022/04/30 00:09:58;;;;;;;2.95;2.47;;;7.90;98.20;;;;;;5087404;28;20115;-42
2022/04/30 00:12:25;;;;;;;4.72;2.70;;;7.90;98.40;;;;;;5094724;28;20031;-40
2022/04/30 00:14:51;;;;;;;3.85;2.78;;;7.80;98.40;;;;;;5088725;28;20074;-41
2022/04/30 00:17:17;;;;;;;4.38;2.92;;;7.80;98.50;;;;;;5092345;28;20032;-41
2022/04/30 00:19:42;;;;;;;3.58;3.00;;;7.80;98.60;;;;;;5090980;28;20032;-41
2022/04/30 00:22:09;;;;;;;5.15;2.92;;;7.70;98.70;;;;;;5090900;28;20104;-41
2022/04/30 00:24:38;;;;;;;4.82;2.80;;;7.70;98.80;;;;;;5092822;28;20071;-42
2022/04/30 00:27:06;;;;;;;4.68;2.85;;;7.60;98.80;;;;;;5089579;28;20052;-41
2022/04/30 00:29:32;;;;;;;4.07;2.80;;;7.60;98.90;;;;;;5095497;28;20369;-42
2022/04/30 00:32:00;;;;;;;4.50;3.00;;;7.60;99.00;;;;;;5086947;28;20085;-41
2022/04/30 00:34:26;;;;;;;4.70;3.30;;;7.60;99.00;;;;;;5097416;28;20115;-42
2022/04/30 00:36:52;;;;;;;4.10;2.97;;;7.50;99.10;;;;;;5088003;28;20107;-42
2022/04/30 00:39:17;;;;;;;4.10;2.60;;;7.50;99.20;;;;;;5102111;28;20458;-41
2022/04/30 00:41:48;;;;;;;4.30;2.97;;;7.50;99.20;;;;;;5106507;28;20478;-42
2022/04/30 00:44:18;;;;;;;5.40;2.67;;;7.50;99.40;;;;;;5092177;28;20028;-41
2022/04/30 00:46:44;;;;;;;4.25;3.10;;;7.40;99.40;;;;;;5105797;28;20521;-42
2022/04/30 00:49:09;;;;;;;5.25;3.35;;;7.40;99.40;;;;;;5093265;28;20052;-42
2022/04/30 00:51:38;;;;;;;4.70;2.70;;;7.40;99.50;;;;;;5105195;28;20070;-41
2022/04/30 00:54:05;;;;;;;5.25;2.92;;;7.30;99.60;;;;;;5093691;28;20035;-41
2022/04/30 00:56:51;;;;;;;5.20;3.50;;;7.30;99.80;;;;;;5105347;28;20028;-41
2022/04/30 00:59:17;;;;;;;5.07;3.70;;;7.30;99.90;;;;;;5092809;28;20547;-41
2022/04/30 01:01:45;;;;;;;6.05;3.80;;;7.20;99.90;;;;;;5064650;28;20486;-40
2022/04/30 01:04:11;;;;;;;6.88;3.83;;;7.20;99.90;;;;;;5090054;28;20027;-40
2022/04/30 01:06:42;;;;;;;7.38;3.65;;;7.20;99.90;;;;;;5087150;28;20027;-42
2022/04/30 01:09:07;;;;;;;6.15;3.80;;;7.20;99.90;;;;;;5093792;28;20023;-40
2022/04/30 01:11:35;;;;;;;8.52;4.38;;;7.20;99.90;;;;;;5089616;28;20092;-42
2022/04/30 01:14:01;;;;;;;7.28;4.03;;;7.10;99.90;;;;;;5090981;28;20067;-41
2022/04/30 01:16:27;;;;;;;9.23;3.88;;;7.10;99.90;;;;;;5091238;28;20476;-42
2022/04/30 01:18:54;;;;;;;6.57;4.05;;;7.10;99.90;;;;;;5089652;28;20096;-42
2022/04/30 01:21:21;;;;;;;6.10;4.00;;;7.00;99.90;;;;;;5093712;28;20144;-41
2022/04/30 01:23:47;;;;;;;5.68;3.95;;;7.00;99.90;;;;;;5086458;28;20506;-42
2022/04/30 01:26:14;;;;;;;6.03;4.22;;;7.00;99.90;;;;;;5083736;28;20451;-42
2022/04/30 01:28:42;;;;;;;8.57;5.07;;;7.00;99.90;;;;;;5103317;28;20016;-41
2022/04/30 01:37:22;;;;;;;6.82;4.30;;;6.90;99.90;;;;;;5094487;28;20031;-42
2022/04/30 01:39:28;;;;;;;5.68;4.03;;;6.80;99.90;;;;;;5100485;28;20105;-41
2022/04/30 01:41:53;;;;;;;5.78;4.32;;;6.80;99.90;;;;;;5094551;28;20024;-40
2022/04/30 01:44:19;;;;;;;6.45;3.95;;;6.70;99.90;;;;;;5086967;28;20054;-41
2022/04/30 01:46:47;;;;;;;5.97;4.28;;;6.70;99.90;;;;;;5096638;28;20046;-42
2022/04/30 01:49:16;;;;;;;6.68;4.20;;;6.70;99.90;;;;;;5085918;28;20024;-40
2022/04/30 01:51:50;;;;;;;5.82;4.10;;;6.70;99.90;;;;;;5096573;28;20032;-41
2022/04/30 01:54:17;;;;;;;4.47;3.85;;;6.60;99.90;;;;;;5085889;28;20145;-40
2022/04/30 01:56:42;;;;;;;6.38;3.70;;;6.60;99.90;;;;;;5096628;28;20085;-43
2022/04/30 01:59:07;;;;;;;5.95;4.45;;;6.60;99.90;;;;;;5085605;28;20044;-41
2022/04/30 02:01:35;;;;;;;5.32;4.53;;;6.50;99.90;;;;;;5097323;28;20031;-40
2022/04/30 02:04:02;;;;;;;9.05;4.60;;;6.50;99.90;;;;;;5084609;28;20157;-45
2022/04/30 02:06:29;;;;;;;5.93;4.25;;;6.50;99.90;;;;;;5097461;28;20051;-42
2022/04/30 02:08:54;;;;;;;7.00;4.05;;;6.40;99.90;;;;;;5085403;28;20490;-39
2022/04/30 02:11:21;;;;;;;5.63;3.80;;;6.40;99.90;;;;;;5094014;28;20048;-40
2022/04/30 02:13:53;;;;;;;5.03;3.85;;;6.40;99.90;;;;;;5088062;28;20456;-40
2022/04/30 02:16:21;;;;;;;6.95;4.30;;;6.30;99.90;;;;;;5096173;28;20024;-38
2022/04/30 02:18:47;;;;;;;6.22;4.40;;;6.30;99.90;;;;;;5092031;28;20380;-41
2022/04/30 02:21:16;;;;;;;7.57;4.63;;;6.20;99.90;;;;;;5095035;28;20032;-38
2022/04/30 02:23:42;;;;;;;5.13;4.15;;;6.20;99.90;;;;;;5095196;28;20587;-40
2022/04/30 02:26:09;;;;;;;6.47;4.25;;;6.20;99.90;;;;;;5092565;28;20024;-40
2022/04/30 02:28:36;;;;;;;5.78;4.63;;;6.20;99.90;;;;;;5097550;28;20032;-41
2022/04/30 02:31:02;;;;;;;5.75;4.90;;;6.10;99.90;;;;;;5090249;28;20061;-41
2022/04/30 02:33:27;;;;;;;6.15;4.85;;;6.10;99.90;;;;;;5085361;28;20051;-41
2022/04/30 02:35:53;;;;;;;6.55;3.97;;;6.10;99.90;;;;;;5107395;28;20015;-39
2022/04/30 02:38:22;;;;;;;6.85;5.50;;;6.10;99.90;;;;;;5097109;28;20516;-39
2022/04/30 02:40:47;;;;;;;7.85;4.85;;;6.10;99.90;;;;;;5091437;28;20027;-41
2022/04/30 02:43:15;;;;;;;7.13;5.07;;;6.00;99.90;;;;;;5100951;28;20024;-40
2022/04/30 02:45:44;;;;;;;6.97;4.95;;;6.00;99.90;;;;;;5088231;28;20024;-38
2022/04/30 02:48:13;;;;;;;6.03;5.10;;;6.00;99.90;;;;;;5101214;28;20019;-38
2022/04/30 02:50:39;;;;;;;7.22;5.13;;;6.00;99.90;;;;;;5088372;28;20043;-41
2022/04/30 02:53:05;;;;;;;8.40;5.55;;;5.90;99.90;;;;;;5100626;28;20406;-42
2022/04/30 02:55:31;;;;;;;8.23;5.65;;;5.90;99.90;;;;;;5067564;28;20032;-40
2022/04/30 03:00:48;;;;;;;6.97;5.18;;;5.90;99.90;;;;;;5067519;28;20063;-40
2022/04/30 03:03:14;;;;;;;7.75;5.78;;;5.80;99.90;;;;;;5094770;28;20110;-41
2022/04/30 03:05:43;;;;;;;10.18;5.88;;;5.80;99.90;;;;;;5088766;28;20024;-41
2022/04/30 03:08:12;;;;;;;7.13;5.15;;;5.80;99.90;;;;;;5096249;28;20027;-37
2022/04/30 03:10:41;;;;;;;7.97;5.60;;;5.70;99.90;;;;;;5091282;28;20050;-38
2022/04/30 03:13:07;;;;;;;7.10;5.53;;;5.70;99.90;;;;;;5095421;28;20016;-41
2022/04/30 03:15:38;;;;;;;8.00;5.75;;;5.70;99.90;;;;;;5092176;28;20097;-41
2022/04/30 03:23:36;;;;;;;7.22;5.28;;;5.70;99.90;;;;;;5094478;28;20609;-41
2022/04/30 03:26:02;;;;;;;9.10;5.25;;;5.60;99.90;;;;;;5092100;28;20032;-41
2022/04/30 03:28:27;;;;;;;9.15;5.30;;;5.60;99.90;;;;;;5091892;28;20082;-42
2022/04/30 03:30:52;;;;;;;7.88;5.45;;;5.60;99.90;;;;;;5094316;28;20886;-41
2022/04/30 03:33:18;;;;;;;8.13;5.82;;;5.60;99.90;;;;;;5090657;28;20124;-39
2022/04/30 03:35:44;;;;;;;8.02;5.30;;;5.50;99.90;;;;;;5096407;28;20040;-39
2022/04/30 03:38:10;;;;;;;7.60;5.85;;;5.50;99.90;;;;;;5088801;28;20047;-42
2022/04/30 03:40:38;;;;;;;8.75;6.38;;;5.50;99.90;;;;;;5091981;28;20032;-41
2022/04/30 03:43:04;;;;;;;8.68;6.38;;;5.50;99.90;;;;;;5088079;28;20173;-40
2022/04/30 03:45:30;;;;;;;7.50;6.00;;;5.40;99.90;;;;;;5098210;28;20480;-42
2022/04/30 03:47:56;;;;;;;7.30;5.43;;;5.40;99.90;;;;;;5088019;28;20043;-40
2022/04/30 03:50:21;;;;;;;10.27;6.20;;;5.40;99.90;;;;;;5099054;28;20040;-40
2022/04/30 03:52:47;;;;;;;8.82;6.32;;;5.40;99.90;;;;;;5087368;28;20420;-38
2022/04/30 03:55:14;;;;;;;8.18;6.55;;;5.40;99.90;;;;;;5099189;28;20038;-42
2022/04/30 03:57:40;;;;;;;9.32;6.43;;;5.40;99.90;;;;;;5086540;28;20077;-37
2022/04/30 04:00:07;;;;;;;9.75;5.90;;;5.40;99.90;;;;;;5097253;28;20034;-41
2022/04/30 04:02:33;;;;;;;8.57;6.32;;;5.40;99.90;;;;;;5087673;28;20067;-38
2022/04/30 04:04:58;;;;;;;9.25;6.72;;;5.40;99.90;;;;;;5094603;28;20154;-40
2022/04/30 04:07:24;;;;;;;9.32;6.65;;;5.30;99.90;;;;;;5090385;28;20028;-41
2022/04/30 04:09:50;;;;;;;11.05;6.70;;;5.30;99.90;;;;;;5091262;28;20046;-42
2022/04/30 04:12:15;;;;;;;9.68;6.80;;;5.30;99.90;;;;;;5094060;28;20031;-40
2022/04/30 04:17:37;;;;;;;7.90;5.93;;;5.20;99.90;;;;;;5092856;28;20085;-40
2022/04/30 04:20:07;;;;;;;7.57;6.35;;;5.20;99.90;;;;;;5090419;28;20108;-41
2022/04/30 04:22:34;;;;;;;11.68;7.20;;;5.20;99.90;;;;;;5094482;28;20046;-39
2022/04/30 04:27:43;;;;;;;12.70;6.75;;;5.20;99.90;;;;;;5094497;28;20127;-40
2022/04/30 04:30:09;;;;;;;8.15;7.03;;;5.10;99.90;;;;;;5088231;28;20114;-41
2022/04/30 04:32:35;;;;;;;10.82;7.18;;;5.10;99.90;;;;;;5095249;28;20039;-40
2022/04/30 04:35:01;;;;;;;12.15;8.27;;;5.20;99.90;;;;;;5087960;28;20036;-40
2022/04/30 04:37:27;;;;;;;10.40;7.18;;;5.20;99.90;;;;;;5097108;28;20028;-40
2022/04/30 04:39:54;;;;;;;10.70;7.90;;;5.20;99.90;;;;;;5087109;28;20036;-42
2022/04/30 04:42:19;;;;;;;13.32;8.48;;;5.10;99.90;;;;;;5097247;28;20021;-42
2022/04/30 04:44:49;;;;;;;9.85;7.28;;;5.10;99.90;;;;;;5085163;28;20035;-42
2022/04/30 04:47:17;;;;;;;11.05;7.53;;;5.10;99.90;;;;;;5098149;28;20016;-39
2022/04/30 04:49:43;;;;;;;9.38;7.72;;;5.20;99.90;;;;;;5086081;28;20801;-40
2022/04/30 04:52:09;;;;;;;11.10;7.32;;;5.20;99.90;;;;;;5097808;28;20024;-39
2022/04/30 04:54:35;;;;;;;11.95;8.48;;;5.20;99.90;;;;;;5085012;28;20539;-40
2022/04/30 04:57:00;;;;;;;14.75;9.80;;;5.20;99.90;;;;;;5096278;28;20114;-42
2022/04/30 04:59:26;;;;;;;14.00;8.40;;;5.20;99.90;;;;;;5086739;28;20052;-40
2022/04/30 05:01:52;;;;;;;12.02;8.77;;;5.20;99.90;;;;;;5094020;28;20603;-41
2022/04/30 05:04:18;;;;;;;11.30;7.85;;;5.30;99.90;;;;;;5090595;28;20059;-40
2022/04/30 05:06:44;;;;;;;10.85;7.47;;;5.30;99.90;;;;;;5089433;28;20074;-41
2022/04/30 05:09:09;;;;;;;11.70;7.95;;;5.40;99.90;;;;;;5092726;28;20063;-42
2022/04/30 05:11:35;;;;;;;11.20;7.82;;;5.40;99.90;;;;;;5087679;28;20039;-41
2022/04/30 05:14:01;;;;;;;12.20;8.43;;;5.40;99.90;;;;;;5095351;28;20160;-41
2022/04/30 05:16:26;;;;;;;11.35;8.27;;;5.50;99.90;;;;;;5086234;28;20418;-41
2022/04/30 05:18:51;;;;;;;12.45;8.07;;;5.60;99.90;;;;;;5096705;28;20032;-41
2022/04/30 05:21:20;;;;;;;9.95;7.82;;;5.70;99.90;;;;;;5086228;28;20554;-41
2022/04/30 05:23:45;;;;;;;16.10;8.93;;;5.70;99.90;;;;;;5093572;28;20439;-41
2022/04/30 05:26:11;;;;;;;12.65;8.65;;;5.80;99.90;;;;;;5085543;28;20479;-43
2022/04/30 05:28:36;;;;;;;12.10;8.20;;;5.90;99.90;;;;;;5097270;28;20138;-42
2022/04/30 05:31:05;;;;;;;10.57;8.10;;;5.90;99.90;;;;;;5085055;28;20438;-42
2022/04/30 05:33:35;;;;;;;10.55;8.02;;;6.00;99.90;;;;;;5097350;28;20031;-41
2022/04/30 05:36:01;;;;;;;13.02;7.95;;;6.00;99.90;;;;;;5085204;28;20501;-41
2022/04/30 05:38:27;;;;;;;12.57;8.00;;;6.10;99.90;;;;;;5095827;28;20019;-42
2022/04/30 05:40:52;;;;;;;8.73;7.65;;;6.10;99.90;;;;;;5103399;28;20019;-42
2022/04/30 05:43:18;;;;;;;8.70;7.32;;;6.20;99.90;;;;;;5095750;28;20366;-41
2022/04/30 05:45:43;;;;;;;11.80;7.30;;;6.30;99.90;;;;;;5101080;28;20032;-41
2022/04/30 05:48:09;;;;;;;10.52;7.20;;;6.40;99.90;;;;;;5098880;28;20024;-43
2022/04/30 05:50:34;;;;;;;10.77;6.65;;;6.40;99.90;;;;;;5100181;28;20035;-42
2022/04/30 05:53:00;;;;;;;8.05;7.05;;;6.50;99.90;;;;;;5106837;28;20020;-42
2022/04/30 05:55:26;;;;;;;10.95;6.47;;;6.50;99.90;;;;;;5098587;28;20050;-42
2022/04/30 05:57:51;;;;;;;7.90;6.03;;;6.60;99.90;;;;;;5107733;28;20047;-44
2022/04/30 06:00:17;;;;;;;7.10;5.80;;;6.70;99.90;;;;;;5098640;28;20434;-42
2022/04/30 06:02:43;;;;;;;5.95;5.20;;;6.80;99.90;;;;;;5107502;28;20354;-39
2022/04/30 06:05:08;;;;;;;9.40;5.55;;;7.00;99.90;;;;;;5098362;28;20011;-41
2022/04/30 06:07:34;;;;;;;9.48;5.75;;;7.10;99.90;;;;;;5108990;28;20119;-42
2022/04/30 06:10:00;;;;;;;7.03;5.25;;;7.20;99.90;;;;;;5095743;28;20035;-42
2022/04/30 06:12:25;;;;;;;5.63;4.85;;;7.30;99.90;;;;;;5109317;28;20019;-42
2022/04/30 06:14:51;;;;;;;6.47;4.53;;;7.40;99.90;;;;;;5096993;28;20036;-42
2022/04/30 06:17:16;;;;;;;6.32;5.03;;;7.50;99.90;;;;;;5109113;28;20827;-44
2022/04/30 06:19:42;;;;;;;8.00;5.25;;;7.60;99.90;;;;;;5099118;28;20031;-43
2022/04/30 06:22:07;;;;;;;8.10;5.13;;;7.70;99.90;;;;;;5106997;28;20062;-41
2022/04/30 06:24:33;;;;;;;6.65;4.57;;;7.70;99.90;;;;;;5100897;28;20400;-43
2022/04/30 06:26:59;;;;;;;7.75;4.88;;;7.80;99.90;;;;;;5103819;28;20016;-41
2022/04/30 06:29:24;;;;;;;4.85;4.25;;;7.90;99.90;;;;;;5104354;28;20471;-41
2022/04/30 06:31:51;;;;;;;4.68;3.83;;;8.00;99.90;;;;;;5100923;28;20024;-41
2022/04/30 06:34:17;;;;;;;9.00;4.30;;;8.00;99.90;;;;;;5106811;28;20012;-41
2022/04/30 06:36:42;;;;;;;4.47;3.72;;;8.00;99.90;;;;;;5097878;28;20042;-42
2022/04/30 06:39:08;;;;;;;6.00;4.43;;;8.10;99.90;;;;;;5105639;28;20055;-41
2022/04/30 06:41:33;;;;;;;4.05;3.63;;;8.10;99.90;;;;;;5098058;28;20032;-41
2022/04/30 06:43:59;;;;;;;6.55;3.83;;;8.20;99.90;;;;;;5107970;28;20024;-41
2022/04/30 06:46:24;;;;;;;4.65;3.78;;;8.20;99.90;;;;;;5095259;28;20553;-40
2022/04/30 06:48:50;;;;;;;4.57;3.58;;;8.30;99.90;;;;;;5108710;28;20039;-43
2022/04/30 06:51:15;;;;;;;5.38;4.00;;;8.30;99.90;;;;;;5094996;28;20093;-41
2022/04/30 06:59:11;;;;;;;5.32;4.15;;;8.50;99.90;;;;;;5086193;28;20062;-41
2022/04/30 07:01:57;;;;;;;4.20;3.28;;;8.60;99.90;;;;;;5098260;28;20096;-39
2022/04/30 07:04:24;;;;;;;5.28;3.83;;;8.80;99.90;;;;;;5087863;28;20028;-41
2022/04/30 07:06:50;;;;;;;7.40;4.20;;;8.80;99.90;;;;;;5098749;28;20030;-43
2022/04/30 07:09:16;;;;;;;7.55;4.10;;;8.90;99.90;;;;;;5086309;28;20035;-41
2022/04/30 07:11:42;;;;;;;5.18;3.65;;;9.00;99.90;;;;;;5099068;28;20368;-41
2022/04/30 07:14:08;;;;;;;4.93;3.97;;;9.10;99.90;;;;;;5086972;28;20039;-42
2022/04/30 07:16:33;;;;;;;4.20;3.78;;;9.20;99.90;;;;;;5096019;28;20042;-40
2022/04/30 07:19:03;;;;;;;4.85;3.92;;;9.30;99.90;;;;;;5089969;28;20024;-41
2022/04/30 07:21:31;;;;;;;5.63;3.50;;;9.40;99.90;;;;;;5093020;28;20102;-42
2022/04/30 07:23:57;;;;;;;5.50;4.18;;;9.50;99.90;;;;;;5092160;28;20024;-42
2022/04/30 07:26:23;;;;;;;5.32;3.70;;;9.60;99.90;;;;;;5091229;28;20427;-42
2022/04/30 07:28:48;;;;;;;4.68;3.60;;;9.70;99.90;;;;;;5092650;28;20028;-41
2022/04/30 07:31:14;;;;;;;6.32;3.90;;;9.80;99.90;;;;;;5089240;28;20043;-42
2022/04/30 07:33:39;;;;;;;7.00;4.43;;;9.90;99.90;;;;;;5095261;28;20024;-43
2022/04/30 07:36:05;;;;;;;6.68;3.92;;;10.10;99.90;;;;;;5087421;28;20040;-41
2022/04/30 07:38:31;;;;;;;4.30;3.08;;;10.10;99.90;;;;;;5097543;28;20111;-40
2022/04/30 07:40:57;;;;;;;4.32;3.83;;;10.30;99.90;;;;;;5100725;28;20283;-41
2022/04/30 07:43:22;;;;;;;5.03;4.07;;;10.40;99.90;;;;;;5096063;28;20027;-44
2022/04/30 07:45:48;;;;;;;5.55;3.60;;;10.50;99.90;;;;;;5107010;28;20032;-46
2022/04/30 07:48:16;;;;;;;6.00;4.10;;;10.50;99.90;;;;;;5093766;28;20032;-41
2022/04/30 07:50:45;;;;;;;5.03;4.47;;;10.60;99.90;;;;;;5107849;28;20114;-40
2022/04/30 07:53:13;;;;;;;6.15;4.50;;;10.60;99.90;;;;;;5094833;28;20020;-40
2022/04/30 07:55:39;;;;;;;6.63;5.43;;;10.70;99.90;;;;;;5106787;28;20031;-41
2022/04/30 07:58:05;;;;;;;6.47;5.30;;;10.70;99.90;;;;;;5095680;28;20044;-42
2022/04/30 08:00:31;;;;;;;5.85;5.18;;;10.80;99.90;;;;;;5104714;28;20080;-42
2022/04/30 08:02:58;;;;;;;6.10;4.22;;;10.70;99.90;;;;;;5097989;28;20027;-42
2022/04/30 08:05:24;;;;;;;5.10;4.20;;;10.80;99.90;;;;;;5086566;28;20055;-40
2022/04/30 08:07:51;;;;;;;6.32;4.28;;;10.80;99.90;;;;;;5091201;28;20026;-41
2022/04/30 08:10:17;;;;;;;6.93;4.38;;;10.90;99.90;;;;;;5099523;28;20121;-41
2022/04/30 08:12:42;;;;;;;6.05;4.80;;;11.00;99.90;;;;;;5103171;28;20023;-39
2022/04/30 08:15:09;;;;;;;5.13;4.15;;;11.10;99.90;;;;;;5097953;28;20061;-40
2022/04/30 08:17:34;;;;;;;4.90;4.10;;;11.20;99.90;;;;;;5102307;28;20081;-40
2022/04/30 08:20:01;;;;;;;5.43;4.13;;;11.30;99.90;;;;;;5093551;28;20542;-41
2022/04/30 08:22:27;;;;;;;5.63;3.83;;;11.30;99.90;;;;;;5103075;28;20027;-42
2022/04/30 08:24:52;;;;;;;6.72;3.60;;;11.50;99.90;;;;;;5093246;28;20035;-40
2022/04/30 08:27:18;;;;;;;4.45;4.05;;;11.60;99.90;;;;;;5105206;28;20029;-42
2022/04/30 08:29:44;;;;;;;6.15;4.15;;;11.70;99.90;;;;;;5092954;28;20039;-43
2022/04/30 08:32:10;;;;;;;6.43;5.03;;;11.80;99.90;;;;;;5106006;28;20027;-43
2022/04/30 08:34:36;;;;;;;5.85;4.35;;;11.90;99.90;;;;;;5092736;28;20069;-37
2022/04/30 08:37:01;;;;;;;6.15;3.67;;;11.90;99.90;;;;;;5104582;28;20026;-39
2022/04/30 08:39:27;;;;;;;7.72;4.30;;;12.00;99.90;;;;;;5094341;28;20033;-42
2022/04/30 08:41:53;;;;;;;7.15;5.03;;;12.00;99.90;;;;;;5086472;28;20031;-40
2022/04/30 08:44:19;;;;;;;6.95;4.38;;;12.00;99.90;;;;;;5093651;28;20019;-41
2022/04/30 08:46:45;;;;;;;8.00;4.47;;;12.10;99.70;;;;;;5090247;28;20185;-42
2022/04/30 08:49:11;;;;;;;5.78;4.35;;;12.10;99.90;;;;;;5091857;28;20016;-42
2022/04/30 08:51:38;;;;;;;6.43;4.05;;;12.20;99.90;;;;;;5092093;28;20032;-39
2022/04/30 08:54:03;;;;;;;5.07;3.67;;;12.30;99.80;;;;;;5089083;28;20036;-40
2022/04/30 08:56:29;;;;;;;5.38;3.20;;;12.40;99.80;;;;;;5094906;28;20464;-41
2022/04/30 08:59:08;;;;;;;4.70;3.72;;;12.40;99.70;;;;;;5086290;28;20072;-43
2022/04/30 09:01:48;;;;;;;5.00;3.78;;;12.40;99.60;;;;;;5085243;28;20105;-41
2022/04/30 09:04:14;;;;;;;4.05;3.70;;;12.40;99.50;;;;;;5103780;28;20129;-42
2022/04/30 09:06:55;;;;;;;8.85;3.92;;;12.40;99.10;;;;;;5094347;28;20118;-42
2022/04/30 09:09:28;;;;;;;6.00;3.55;;;12.40;99.20;;;;;;5105298;28;20015;-41
2022/04/30 09:11:56;;;;;;;4.78;3.70;;;12.60;99.20;;;;;;5085536;28;20027;-39
2022/04/30 09:14:26;;;;;;;4.40;3.03;;;12.60;99.10;;;;;;5103709;28;20057;-41
2022/04/30 09:17:06;;;;;;;4.70;3.22;;;12.70;99.10;;;;;;5095178;28;20028;-40
2022/04/30 09:19:59;;;;;;;6.32;3.90;;;12.80;99.00;;;;;;5103463;28;20020;-39
2022/04/30 09:22:38;;;;;;;6.38;3.78;;;12.90;98.30;;;;;;5077521;28;20081;-40
2022/04/30 09:25:16;;;;;;;5.90;3.55;;;12.80;98.00;;;;;;5102590;28;20019;-43
2022/04/30 09:27:44;;;;;;;4.90;4.00;;;12.80;98.00;;;;;;5097433;28;20054;-43
2022/04/30 09:30:17;;;;;;;4.30;3.63;;;12.80;98.10;;;;;;5103315;28;20059;-41
2022/04/30 09:32:43;;;;;;;5.22;3.85;;;13.00;98.30;;;;;;5096481;28;20034;-41
2022/04/30 09:38:03;;;;;;;4.93;3.50;;;13.00;97.40;;;;;;5088362;28;20069;-42
2022/04/30 09:40:29;;;;;;;4.60;3.40;;;13.00;97.60;;;;;;5101612;28;20058;-40
2022/04/30 09:42:54;;;;;;;4.43;3.35;;;13.00;97.70;;;;;;5095195;28;20031;-41
2022/04/30 09:45:26;;;;;;;5.35;4.15;;;13.00;97.80;;;;;;5104192;28;20020;-43
2022/04/30 09:47:53;;;;;;;5.38;4.10;;;13.00;97.00;;;;;;5093790;28;20012;-43
2022/04/30 09:55:53;;;;;;;5.78;3.92;;;13.20;96.60;;;;;;5102955;28;20042;-40
2022/04/30 09:58:26;;;;;;;4.90;3.33;;;13.30;96.60;;;;;;5094184;28;20072;-42
2022/04/30 10:00:58;;;;;;;4.03;2.88;;;13.30;96.40;;;;;;5104118;28;20039;-42
2022/04/30 10:03:29;;;;;;;4.22;3.20;;;13.40;96.00;;;;;;5093435;28;20023;-42
2022/04/30 10:06:05;;;;;;;4.93;3.10;;;13.40;95.90;;;;;;5104604;28;20032;-41
2022/04/30 10:08:35;;;;;;;4.97;3.58;;;13.50;95.50;;;;;;5093307;28;20024;-42
2022/04/30 10:11:14;;;;;;;6.65;3.90;;;13.40;95.20;;;;;;5103838;28;20691;-42
2022/04/30 10:13:55;;;;;;;5.60;4.57;;;13.30;95.20;;;;;;5094049;28;20020;-42
2022/04/30 10:16:26;;;;;;;7.43;4.55;;;13.20;95.00;;;;;;5103807;28;20382;-39
2022/04/30 10:18:59;;;;;;;5.80;3.97;;;13.10;95.30;;;;;;5094483;28;20036;-41
2022/04/30 10:21:25;;;;;;;6.45;3.97;;;13.10;95.40;;;;;;5103546;28;20034;-41
2022/04/30 10:24:00;;;;;;;5.13;3.80;;;13.10;95.60;;;;;;5093347;28;20023;-42
2022/04/30 10:26:26;;;;;;;7.38;4.57;;;13.10;95.70;;;;;;5103808;28;20027;-42
2022/04/30 10:29:02;;;;;;;5.57;4.10;;;13.10;95.60;;;;;;5093444;28;20016;-40
2022/04/30 10:31:27;;;;;;;10.18;4.75;;;13.10;95.60;;;;;;5104077;28;20046;-42
2022/04/30 10:33:53;;;;;;;6.63;4.97;;;13.00;95.70;;;;;;5092897;28;20016;-40
2022/04/30 10:36:21;;;;;;;7.53;5.63;;;12.90;95.60;;;;;;5104984;28;20032;-41
2022/04/30 10:39:02;;;;;;;8.95;5.55;;;12.90;95.20;;;;;;5095224;28;20028;-41
2022/04/30 10:41:27;;;;;;;7.25;5.13;;;12.80;95.30;;;;;;5090758;28;20559;-41
2022/04/30 10:44:03;;;;;;;5.88;4.53;;;12.70;95.40;;;;;;5100578;28;20122;-41
2022/04/30 10:46:37;;;;;;;6.88;4.50;;;12.70;95.60;;;;;;5087966;28;20046;-41
2022/04/30 10:49:04;;;;;;;4.90;3.53;;;12.80;95.70;;;;;;5101354;28;20039;-43
2022/04/30 10:51:44;;;;;;;5.65;3.20;;;12.90;95.60;;;;;;5087180;28;20047;-41
2022/04/30 10:54:21;;;;;;;4.25;3.20;;;13.10;95.40;;;;;;5101221;28;20023;-40
2022/04/30 10:56:46;;;;;;;4.35;3.60;;;13.20;95.00;;;;;;5068022;28;20399;-40
2022/04/30 10:59:21;;;;;;;5.38;3.10;;;13.30;94.30;;;;;;5094058;28;20650;-42
2022/04/30 11:01:50;;;;;;;7.55;3.63;;;13.30;94.50;;;;;;5067082;28;20569;-43
2022/04/30 11:04:17;;;;;;;3.85;3.42;;;13.30;94.60;;;;;;5092465;28;20015;-42
2022/04/30 11:06:43;;;;;;;4.78;3.50;;;13.40;94.40;;;;;;5089431;28;20027;-42
2022/04/30 11:09:09;;;;;;;6.18;4.00;;;13.50;94.50;;;;;;5096140;28;20015;-43
2022/04/30 11:11:36;;;;;;;4.57;3.40;;;13.60;94.10;;;;;;5091912;28;20040;-41
2022/04/30 11:14:06;;;;;;;4.90;3.35;;;13.70;94.10;;;;;;5093984;28;20061;-40
2022/04/30 11:16:34;;;;;;;6.05;4.07;;;13.70;93.90;;;;;;5094259;28;20130;-38
2022/04/30 11:19:09;;;;;;;4.70;3.13;;;13.70;93.70;;;;;;5091070;28;20050;-40
2022/04/30 11:21:41;;;;;;;6.35;3.58;;;13.80;94.00;;;;;;5094927;28;20115;-38
2022/04/30 11:24:08;;;;;;;5.80;3.65;;;13.80;93.80;;;;;;5091397;28;20032;-40
2022/04/30 11:26:38;;;;;;;3.72;3.40;;;13.80;93.60;;;;;;5095370;28;20396;-41
2022/04/30 11:29:11;;;;;;;5.53;4.45;;;13.80;93.80;;;;;;5088760;28;20364;-41
2022/04/30 11:31:38;;;;;;;5.07;4.07;;;13.80;93.40;;;;;;5096824;28;20904;-40
2022/04/30 11:34:15;;;;;;;4.85;3.75;;;13.80;93.60;;;;;;5088173;28;20020;-39
2022/04/30 11:36:46;;;;;;;5.53;3.70;;;13.80;93.60;;;;;;5085620;28;20218;-41
2022/04/30 11:39:13;;;;;;;5.15;3.97;;;14.00;93.60;;;;;;5106317;28;20030;-42
2022/04/30 11:41:43;;;;;;;5.07;3.72;;;14.00;93.50;;;;;;5106210;28;20047;-42
2022/04/30 11:44:10;;;;;;;4.20;3.10;;;14.20;93.30;;;;;;5104156;28;20555;-42
2022/04/30 11:46:37;;;;;;;4.20;3.60;;;14.30;93.20;;;;;;5098238;28;20051;-42
2022/04/30 11:49:11;;;;;;;4.75;3.15;;;14.30;93.20;;;;;;5086394;28;20498;-41
2022/04/30 11:51:38;;;;;;;6.25;4.22;;;14.40;92.80;;;;;;5093827;28;20040;-41
2022/04/30 11:54:08;;;;;;;4.43;3.33;;;14.50;92.40;;;;;;5106717;28;20020;-42
2022/04/30 11:56:34;;;;;;;5.07;3.03;;;14.50;92.60;;;;;;5094357;28;20036;-42
2022/04/30 11:58:59;;;;;;;3.33;2.97;;;14.60;92.40;;;;;;5107435;28;20045;-41
2022/04/30 12:01:30;;;;;;;3.65;2.75;;;14.60;92.40;;;;;;5093259;28;20562;-43
2022/04/30 12:04:03;;;;;;;3.42;2.88;;;14.70;92.20;;;;;;5066928;28;20126;-40
2022/04/30 12:06:29;;;;;;;4.57;3.50;;;14.70;92.20;;;;;;5093501;28;20034;-40
2022/04/30 12:08:55;;;;;;;4.03;3.13;;;14.70;92.10;;;;;;5087165;28;20028;-41
2022/04/30 12:11:21;;;;;;;3.83;3.00;;;14.70;91.90;;;;;;5095926;28;20756;-42
2022/04/30 12:13:57;;;;;;;3.10;2.80;;;14.70;92.00;;;;;;5089828;28;20110;-41
2022/04/30 12:16:23;;;;;;;4.13;2.85;;;14.70;92.20;;;;;;5093382;28;20422;-43
2022/04/30 12:24:46;;;;;;;3.55;2.75;;;14.70;92.10;;;;;;5086522;28;20069;-41
2022/04/30 12:27:23;;;;;;;4.75;3.17;;;14.70;92.30;;;;;;5098176;28;20042;-43
2022/04/30 12:30:05;;;;;;;4.68;3.40;;;14.70;91.80;;;;;;5065794;28;20610;-42
2022/04/30 12:32:33;;;;;;;4.65;3.22;;;14.60;91.70;;;;;;5095821;28;20049;-40
2022/04/30 12:34:58;;;;;;;3.08;2.60;;;14.50;91.90;;;;;;5086580;28;20047;-40
2022/04/30 12:37:32;;;;;;;4.35;3.05;;;14.50;92.00;;;;;;5096391;28;20027;-41
2022/04/30 12:39:57;;;;;;;4.07;3.50;;;14.40;92.10;;;;;;5090708;28;20051;-41
2022/04/30 12:42:23;;;;;;;6.15;4.00;;;14.40;91.20;;;;;;5097056;28;20063;-42
2022/04/30 12:44:48;;;;;;;5.72;3.92;;;14.20;90.30;;;;;;5102373;28;20830;-41
2022/04/30 12:47:14;;;;;;;3.72;3.30;;;14.00;90.70;;;;;;5099955;28;20036;-41
2022/04/30 12:49:40;;;;;;;3.75;2.95;;;13.90;91.20;;;;;;5100698;28;20054;-42
2022/04/30 12:52:06;;;;;;;4.35;2.80;;;13.90;91.20;;;;;;5101745;28;20034;-41
2022/04/30 12:54:31;;;;;;;3.78;3.30;;;14.00;91.10;;;;;;5096437;28;20019;-41
2022/04/30 12:56:57;;;;;;;4.93;2.83;;;14.00;90.90;;;;;;5105280;28;20482;-41
2022/04/30 12:59:22;;;;;;;2.95;2.63;;;14.10;90.90;;;;;;5092855;28;20052;-42
2022/04/30 13:01:48;;;;;;;3.53;2.60;;;14.20;90.80;;;;;;5102548;28;20047;-40
2022/04/30 13:04:13;;;;;;;2.40;2.17;;;14.30;90.80;;;;;;5093601;28;20023;-41
2022/04/30 13:06:40;;;;;;;4.55;2.90;;;14.40;90.80;;;;;;5097713;28;20126;-41
2022/04/30 13:14:35;;;;;;;2.72;2.40;;;14.60;90.20;;;;;;5093223;28;20097;-45
2022/04/30 13:17:01;;;;;;;2.85;2.40;;;14.70;90.00;;;;;;5085698;28;20621;-40
2022/04/30 13:19:26;;;;;;;5.68;2.88;;;14.80;90.10;;;;;;5096800;28;20132;-41
2022/04/30 13:21:52;;;;;;;3.88;2.70;;;14.80;88.60;;;;;;5085879;28;20483;-41
2022/04/30 13:24:18;;;;;;;3.63;2.63;;;14.80;87.90;;;;;;5098061;28;20019;-40
2022/04/30 13:26:44;;;;;;;4.07;2.53;;;14.70;87.90;;;;;;5084700;28;20024;-42
2022/04/30 13:29:10;;;;;;;3.90;2.70;;;14.70;87.60;;;;;;5096321;28;20458;-38
2022/04/30 13:31:40;;;;;;;3.90;2.63;;;14.80;87.00;;;;;;5086228;28;20036;-42
2022/04/30 13:34:06;;;;;;;3.50;2.47;;;14.70;86.20;;;;;;5093666;28;20078;-42
2022/04/30 13:36:36;;;;;;;2.60;2.20;;;14.80;86.90;;;;;;5089298;28;20081;-42
2022/04/30 13:39:03;;;;;;;2.45;2.10;;;14.90;87.10;;;;;;5092445;28;20053;-41